Time;durP1;ratioP1;P1;durP2;ratioP2;P2;SDS_P1;SDS_P2;PMS_P1;PMS_P2;Temp;Humidity;BMP_temperature;BMP_pressure;BME280_temperature;BME280_humidity;BME280_pressure;Samples;Min_cycle;Max_cycle;Signal;HPM_P1;HPM_P2
2023/01/25 00:00:49;;;;;;;8.23;5.70;;;0.80;96.80;;;;;;5031437;28;20507;-78
2023/01/25 00:03:15;;;;;;;10.15;6.30;;;0.80;96.80;;;;;;5031641;28;20033;-77
2023/01/25 00:05:41;;;;;;;8.82;6.72;;;0.80;96.60;;;;;;5031851;28;20026;-78
2023/01/25 00:08:06;;;;;;;12.98;7.13;;;0.80;96.60;;;;;;5031484;28;20056;-79
2023/01/25 00:10:32;;;;;;;7.68;5.70;;;0.70;96.50;;;;;;5013994;28;20064;-78
2023/01/25 00:12:58;;;;;;;10.93;6.20;;;0.70;96.60;;;;;;5031953;28;20036;-77
2023/01/25 00:15:24;;;;;;;7.80;6.00;;;0.80;96.50;;;;;;5031644;28;20029;-77
2023/01/25 00:17:49;;;;;;;13.05;6.95;;;0.80;96.50;;;;;;5031874;28;20039;-78
2023/01/25 00:20:15;;;;;;;9.85;6.50;;;0.80;96.50;;;;;;5031893;28;20029;-77
2023/01/25 00:22:41;;;;;;;10.75;6.22;;;0.90;96.30;;;;;;5014045;28;20116;-78
2023/01/25 00:25:07;;;;;;;8.50;6.10;;;0.80;96.30;;;;;;5024964;28;20512;-77
2023/01/25 00:27:33;;;;;;;9.05;6.25;;;0.90;96.40;;;;;;5031866;28;20059;-78
2023/01/25 00:29:59;;;;;;;9.55;6.13;;;0.90;96.30;;;;;;5031573;28;20040;-78
2023/01/25 00:32:47;;;;;;;7.25;5.75;;;0.90;96.10;;;;;;5031849;28;20047;-78
2023/01/25 00:35:13;;;;;;;9.75;6.57;;;0.90;96.10;;;;;;5031935;28;20033;-79
2023/01/25 00:37:45;;;;;;;9.70;5.95;;;0.90;96.10;;;;;;5032198;28;20037;-77
2023/01/25 00:40:12;;;;;;;10.15;6.57;;;0.80;96.10;;;;;;5041069;28;20353;-79
2023/01/25 00:42:39;;;;;;;10.10;6.25;;;0.80;96.20;;;;;;5041408;28;20079;-78
2023/01/25 00:45:05;;;;;;;7.35;5.40;;;0.80;96.10;;;;;;5039118;28;20045;-79
2023/01/25 00:47:31;;;;;;;7.03;5.57;;;0.80;96.20;;;;;;5041005;28;20045;-78
2023/01/25 00:49:57;;;;;;;8.23;6.15;;;0.80;96.20;;;;;;5038844;28;20034;-75
2023/01/25 00:52:22;;;;;;;7.97;5.40;;;0.80;96.20;;;;;;5027772;28;20060;-76
2023/01/25 00:54:48;;;;;;;9.23;5.38;;;0.80;96.10;;;;;;5031506;28;20021;-78
2023/01/25 00:57:14;;;;;;;6.85;5.05;;;0.80;96.10;;;;;;5030431;28;20512;-77
2023/01/25 00:59:43;;;;;;;7.75;5.80;;;0.80;96.00;;;;;;5023877;28;20056;-76
2023/01/25 01:02:10;;;;;;;8.35;5.43;;;0.80;96.00;;;;;;5051280;28;20151;-77
2023/01/25 01:04:36;;;;;;;12.32;5.75;;;0.80;96.00;;;;;;5051016;28;20013;-78
2023/01/25 01:07:02;;;;;;;8.10;5.43;;;0.80;96.00;;;;;;5051238;28;20036;-77
2023/01/25 01:09:28;;;;;;;8.77;6.32;;;0.80;96.00;;;;;;5051116;28;20112;-76
2023/01/25 01:11:54;;;;;;;8.82;5.80;;;0.80;95.90;;;;;;5051232;28;20021;-79
2023/01/25 01:14:21;;;;;;;6.25;5.00;;;0.80;95.70;;;;;;5050078;28;20036;-78
2023/01/25 01:16:47;;;;;;;10.70;7.35;;;0.80;95.60;;;;;;5051051;28;20021;-79
2023/01/25 01:19:13;;;;;;;10.57;5.03;;;0.80;95.60;;;;;;5051125;28;20036;-79
2023/01/25 01:21:40;;;;;;;9.70;5.20;;;0.70;95.50;;;;;;5051381;28;20021;-78
2023/01/25 01:24:07;;;;;;;7.38;4.95;;;0.70;95.50;;;;;;5047796;28;20025;-78
2023/01/25 01:26:33;;;;;;;7.35;4.97;;;0.70;95.50;;;;;;5046750;28;20025;-78
2023/01/25 01:28:59;;;;;;;6.47;4.72;;;0.70;95.40;;;;;;5054770;28;20098;-78
2023/01/25 01:31:25;;;;;;;6.50;4.63;;;0.70;95.30;;;;;;5053797;28;20726;-77
2023/01/25 01:33:52;;;;;;;7.93;4.32;;;0.60;95.10;;;;;;5054580;28;20498;-78
2023/01/25 01:36:21;;;;;;;8.70;5.47;;;0.60;95.20;;;;;;5036794;28;20442;-77
2023/01/25 01:38:47;;;;;;;10.65;6.00;;;0.60;95.10;;;;;;5054703;28;20545;-78
2023/01/25 01:41:14;;;;;;;6.28;4.30;;;0.60;95.20;;;;;;5054409;28;20028;-79
2023/01/25 01:43:40;;;;;;;6.55;5.43;;;0.60;95.10;;;;;;5054207;28;20032;-79
2023/01/25 01:46:11;;;;;;;7.03;5.70;;;0.60;95.10;;;;;;5046462;28;20357;-79
2023/01/25 01:48:48;;;;;;;7.18;5.00;;;0.50;95.10;;;;;;5052965;28;20029;-78
2023/01/25 01:51:39;;;;;;;7.38;4.82;;;0.50;95.20;;;;;;5050642;28;20480;-80
2023/01/25 01:54:18;;;;;;;9.50;6.20;;;0.60;95.30;;;;;;5044730;28;20057;-79
2023/01/25 01:57:10;;;;;;;6.75;4.88;;;0.60;95.30;;;;;;5051673;28;20044;-79
2023/01/25 01:59:47;;;;;;;8.13;5.40;;;0.60;95.20;;;;;;5040886;28;20130;-78
2023/01/25 02:02:14;;;;;;;6.43;5.28;;;0.60;95.10;;;;;;5047709;28;20051;-80
2023/01/25 02:04:42;;;;;;;8.63;5.45;;;0.60;95.10;;;;;;5049853;28;20404;-77
2023/01/25 02:07:20;;;;;;;11.57;7.32;;;0.60;95.10;;;;;;5053661;28;20028;-76
2023/01/25 02:09:47;;;;;;;6.95;4.47;;;0.60;95.20;;;;;;5053573;28;20044;-78
2023/01/25 02:12:13;;;;;;;8.65;5.82;;;0.60;95.20;;;;;;5035544;28;20029;-79
2023/01/25 02:14:46;;;;;;;8.52;5.60;;;0.60;95.20;;;;;;5035978;28;20032;-78
2023/01/25 02:17:11;;;;;;;7.25;5.25;;;0.60;95.30;;;;;;5035443;28;20111;-79
2023/01/25 02:20:03;;;;;;;8.50;6.40;;;0.60;95.30;;;;;;5046812;28;20073;-77
2023/01/25 02:22:47;;;;;;;7.47;6.15;;;0.60;95.30;;;;;;5034888;28;20036;-78
2023/01/25 02:25:15;;;;;;;9.85;6.97;;;0.60;95.30;;;;;;5053261;28;20476;-78
2023/01/25 02:27:47;;;;;;;9.52;5.65;;;0.60;95.40;;;;;;5035284;28;20100;-77
2023/01/25 02:30:14;;;;;;;11.57;5.55;;;0.60;95.60;;;;;;5053228;28;20041;-78
2023/01/25 02:32:39;;;;;;;8.20;5.57;;;0.60;95.60;;;;;;5035331;28;20476;-79
2023/01/25 02:35:06;;;;;;;12.50;6.07;;;0.60;95.80;;;;;;5053262;28;20032;-76
2023/01/25 02:37:31;;;;;;;9.45;6.60;;;0.60;96.00;;;;;;5033805;28;20029;-77
2023/01/25 02:39:57;;;;;;;9.60;5.57;;;0.60;96.00;;;;;;5053525;28;20017;-77
2023/01/25 02:42:23;;;;;;;11.63;7.07;;;0.70;96.10;;;;;;5052926;28;20032;-77
2023/01/25 02:44:50;;;;;;;11.38;6.43;;;0.70;96.10;;;;;;5053202;28;20024;-77
2023/01/25 02:47:16;;;;;;;10.48;6.40;;;0.60;96.00;;;;;;5052951;28;20099;-77
2023/01/25 02:49:42;;;;;;;7.47;5.32;;;0.60;96.00;;;;;;5052504;28;20132;-77
2023/01/25 02:52:07;;;;;;;11.30;6.28;;;0.60;96.00;;;;;;5034113;28;20488;-77
2023/01/25 02:54:33;;;;;;;16.67;8.18;;;0.60;96.00;;;;;;5052515;28;20035;-78
2023/01/25 02:56:59;;;;;;;8.18;5.70;;;0.60;96.10;;;;;;5052883;28;20465;-77
2023/01/25 02:59:25;;;;;;;9.63;5.40;;;0.70;96.10;;;;;;5034700;28;20065;-77
2023/01/25 03:01:51;;;;;;;11.68;5.95;;;0.70;95.90;;;;;;5034634;28;20017;-79
2023/01/25 03:04:17;;;;;;;7.32;6.00;;;0.60;95.80;;;;;;5052549;28;20033;-78
2023/01/25 03:06:42;;;;;;;7.35;4.80;;;0.60;95.80;;;;;;5052473;28;20025;-78
2023/01/25 03:09:10;;;;;;;6.80;5.38;;;0.70;95.80;;;;;;5051218;28;20526;-76
2023/01/25 03:11:35;;;;;;;9.10;6.95;;;0.70;95.80;;;;;;5052358;28;20029;-78
2023/01/25 03:14:02;;;;;;;7.20;5.18;;;0.70;95.60;;;;;;5052447;28;20032;-77
2023/01/25 03:16:29;;;;;;;10.68;6.40;;;0.60;95.70;;;;;;5052319;28;20032;-78
2023/01/25 03:18:55;;;;;;;11.65;5.65;;;0.60;95.70;;;;;;5034389;28;20036;-76
2023/01/25 03:21:22;;;;;;;10.23;5.78;;;0.50;95.80;;;;;;5052215;28;20376;-77
2023/01/25 03:23:57;;;;;;;8.80;5.65;;;0.50;95.80;;;;;;5052189;28;20078;-77
2023/01/25 03:26:25;;;;;;;7.20;5.80;;;0.50;95.90;;;;;;5050619;28;20052;-78
2023/01/25 03:28:51;;;;;;;10.63;6.20;;;0.50;96.20;;;;;;5051640;28;20033;-78
2023/01/25 03:31:17;;;;;;;9.88;6.05;;;0.50;96.00;;;;;;5052432;28;20028;-78
2023/01/25 03:33:43;;;;;;;7.75;5.30;;;0.50;96.10;;;;;;5051768;28;20111;-77
2023/01/25 03:36:09;;;;;;;8.25;5.20;;;0.50;96.10;;;;;;5051977;28;20056;-77
2023/01/25 03:38:35;;;;;;;8.68;5.85;;;0.50;96.10;;;;;;5052098;28;20029;-79
2023/01/25 03:41:02;;;;;;;8.07;6.32;;;0.50;96.20;;;;;;5051831;28;20518;-76
2023/01/25 03:43:28;;;;;;;8.27;6.07;;;0.40;96.20;;;;;;5050784;28;20024;-77
2023/01/25 03:45:59;;;;;;;9.52;6.10;;;0.40;96.30;;;;;;5051490;28;20017;-76
2023/01/25 03:48:25;;;;;;;9.07;5.85;;;0.50;96.40;;;;;;5051111;28;20498;-77
2023/01/25 03:50:56;;;;;;;7.95;5.88;;;0.50;96.40;;;;;;5051354;28;20458;-78
2023/01/25 03:53:30;;;;;;;9.43;6.13;;;0.50;96.40;;;;;;5046120;28;20029;-76
2023/01/25 03:56:02;;;;;;;8.85;6.63;;;0.50;96.40;;;;;;5044696;28;20060;-77
2023/01/25 03:58:30;;;;;;;12.80;7.93;;;0.50;96.40;;;;;;5051325;28;20498;-78
2023/01/25 04:00:57;;;;;;;11.23;7.53;;;0.50;96.50;;;;;;5050672;28;20045;-76
2023/01/25 04:03:24;;;;;;;11.55;7.50;;;0.50;96.60;;;;;;5051201;28;20033;-76
2023/01/25 04:05:51;;;;;;;13.80;6.07;;;0.50;96.60;;;;;;5051651;28;20510;-77
2023/01/25 04:08:17;;;;;;;8.98;6.10;;;0.50;96.70;;;;;;5051273;28;20369;-77
2023/01/25 04:10:43;;;;;;;9.05;7.82;;;0.50;96.80;;;;;;5051853;28;20044;-78
2023/01/25 04:13:09;;;;;;;9.93;7.18;;;0.40;96.90;;;;;;5033957;28;20017;-77
2023/01/25 04:15:35;;;;;;;13.77;6.18;;;0.50;96.90;;;;;;5052068;28;20044;-78
2023/01/25 04:18:01;;;;;;;15.00;8.30;;;0.50;96.90;;;;;;5032806;28;20032;-78
2023/01/25 04:20:27;;;;;;;7.57;6.20;;;0.40;97.00;;;;;;5051228;28;20017;-78
2023/01/25 04:22:53;;;;;;;9.15;5.60;;;0.50;97.00;;;;;;5051467;28;20069;-77
2023/01/25 04:25:19;;;;;;;11.88;6.82;;;0.50;97.00;;;;;;5051409;28;20017;-78
2023/01/25 04:27:44;;;;;;;8.30;6.45;;;0.40;97.00;;;;;;5051479;28;20021;-77
2023/01/25 04:30:11;;;;;;;10.15;6.50;;;0.40;97.00;;;;;;5051500;28;20395;-78
2023/01/25 04:32:37;;;;;;;10.35;6.93;;;0.40;97.10;;;;;;5051190;28;20028;-78
2023/01/25 04:35:03;;;;;;;12.45;8.70;;;0.40;97.00;;;;;;5050126;28;20106;-79
2023/01/25 04:37:28;;;;;;;11.25;7.90;;;0.40;97.00;;;;;;5033232;28;20021;-77
2023/01/25 04:39:54;;;;;;;14.73;8.63;;;0.40;97.00;;;;;;5051249;28;20480;-77
2023/01/25 04:42:20;;;;;;;13.32;7.43;;;0.40;96.90;;;;;;5051024;28;20021;-77
2023/01/25 04:44:46;;;;;;;10.95;6.38;;;0.40;97.00;;;;;;5051206;28;20022;-77
2023/01/25 04:47:12;;;;;;;10.82;6.70;;;0.40;96.90;;;;;;5051027;28;20028;-76
2023/01/25 04:49:37;;;;;;;13.32;8.52;;;0.30;96.80;;;;;;5051050;28;20507;-78
2023/01/25 04:52:03;;;;;;;10.48;7.20;;;0.30;96.90;;;;;;5049959;28;20025;-77
2023/01/25 04:54:29;;;;;;;13.00;7.68;;;0.30;96.90;;;;;;5037086;28;20112;-77
2023/01/25 04:56:55;;;;;;;10.15;7.07;;;0.30;96.90;;;;;;5051347;28;20025;-77
2023/01/25 04:59:21;;;;;;;12.65;7.90;;;0.30;96.80;;;;;;5051032;28;20041;-79
2023/01/25 05:01:46;;;;;;;10.82;7.78;;;0.30;96.80;;;;;;5054649;28;20017;-79
2023/01/25 05:04:12;;;;;;;12.73;7.50;;;0.20;96.80;;;;;;5055330;28;20067;-79
2023/01/25 05:06:38;;;;;;;10.77;7.22;;;0.20;96.90;;;;;;5054811;28;20143;-79
2023/01/25 05:09:04;;;;;;;10.32;6.80;;;0.20;97.00;;;;;;5054007;28;20509;-78
2023/01/25 05:11:30;;;;;;;13.88;7.40;;;0.20;96.90;;;;;;5054798;28;20021;-78
2023/01/25 05:13:56;;;;;;;9.23;7.13;;;0.20;96.90;;;;;;5037003;28;20021;-78
2023/01/25 05:16:22;;;;;;;11.75;8.70;;;0.10;96.80;;;;;;5054552;28;20025;-79
2023/01/25 05:18:47;;;;;;;8.45;6.53;;;0.10;96.90;;;;;;5054614;28;20027;-79
2023/01/25 05:24:02;;;;;;;9.77;6.82;;;-0.10;97.00;;;;;;5026019;28;20029;-78
2023/01/25 05:29:12;;;;;;;13.60;9.02;;;-0.20;97.30;;;;;;5041327;28;20274;-79
2023/01/25 05:31:38;;;;;;;14.63;6.82;;;-0.20;97.50;;;;;;5041400;28;20026;-80
2023/01/25 05:34:04;;;;;;;10.98;7.15;;;-0.20;97.50;;;;;;5052946;28;20024;-78
2023/01/25 05:36:29;;;;;;;9.00;6.88;;;-0.10;97.60;;;;;;5054261;28;20079;-79
2023/01/25 05:38:55;;;;;;;10.65;8.02;;;-0.10;97.50;;;;;;5054242;28;20032;-78
2023/01/25 05:41:21;;;;;;;14.57;7.55;;;-0.10;97.60;;;;;;5053963;28;20090;-80
2023/01/25 05:43:48;;;;;;;10.80;7.60;;;0.00;97.60;;;;;;5052782;28;20021;-79
2023/01/25 05:46:14;;;;;;;8.63;6.50;;;0.10;97.60;;;;;;5053927;28;20028;-80
2023/01/25 05:48:39;;;;;;;8.15;6.20;;;0.10;97.40;;;;;;5054228;28;20020;-79
2023/01/25 05:51:05;;;;;;;10.38;6.93;;;0.10;97.30;;;;;;5053695;28;20399;-80
2023/01/25 05:53:31;;;;;;;8.77;7.07;;;0.10;97.20;;;;;;5040698;28;20029;-81
2023/01/25 05:56:07;;;;;;;8.15;6.35;;;0.10;97.00;;;;;;5047256;28;20494;-79
2023/01/25 05:58:33;;;;;;;9.38;6.38;;;0.10;96.90;;;;;;5053827;28;20032;-80
2023/01/25 06:01:00;;;;;;;8.57;4.57;;;0.00;96.80;;;;;;5029972;28;20083;-78
2023/01/25 06:03:26;;;;;;;11.45;6.60;;;0.00;96.80;;;;;;5052002;28;20035;-78
2023/01/25 06:06:01;;;;;;;12.65;7.40;;;-0.10;96.80;;;;;;5053357;28;20082;-80
2023/01/25 06:08:30;;;;;;;9.18;6.35;;;-0.10;97.10;;;;;;5053546;28;20033;-79
2023/01/25 06:10:56;;;;;;;8.43;5.88;;;0.00;97.20;;;;;;5035677;28;20029;-78
2023/01/25 06:13:23;;;;;;;9.68;5.90;;;0.10;97.10;;;;;;5052502;28;20438;-80
2023/01/25 06:15:56;;;;;;;8.25;6.40;;;0.10;96.90;;;;;;5035406;28;20017;-78
2023/01/25 06:18:25;;;;;;;9.13;6.40;;;0.10;96.90;;;;;;5052189;28;20048;-79
2023/01/25 06:20:51;;;;;;;10.23;6.82;;;0.10;96.90;;;;;;5046974;28;20025;-78
2023/01/25 06:23:17;;;;;;;10.65;6.65;;;0.20;96.90;;;;;;5047839;28;20035;-79
2023/01/25 06:25:43;;;;;;;9.25;6.43;;;0.30;96.80;;;;;;5053503;28;20089;-79
2023/01/25 06:28:09;;;;;;;7.53;6.15;;;0.30;96.70;;;;;;5053119;28;20079;-78
2023/01/25 06:30:35;;;;;;;10.90;7.00;;;0.40;96.60;;;;;;5052923;28;20032;-78
2023/01/25 06:33:01;;;;;;;9.13;7.03;;;0.40;96.50;;;;;;5052212;28;20032;-79
2023/01/25 06:35:27;;;;;;;9.52;7.38;;;0.50;96.40;;;;;;5052422;28;20029;-79
2023/01/25 06:37:57;;;;;;;10.07;7.25;;;0.50;96.30;;;;;;5042446;28;20059;-78
2023/01/25 06:40:24;;;;;;;11.18;6.95;;;0.50;96.20;;;;;;5037189;28;20029;-79
2023/01/25 06:42:49;;;;;;;15.47;7.10;;;0.50;96.20;;;;;;5033948;28;20543;-79
2023/01/25 06:45:15;;;;;;;9.10;6.72;;;0.60;96.20;;;;;;5035958;28;20177;-79
2023/01/25 06:47:41;;;;;;;15.23;9.10;;;0.60;96.20;;;;;;5051905;28;20099;-81
2023/01/25 06:50:09;;;;;;;14.40;7.10;;;0.70;96.10;;;;;;5051852;28;20119;-79
2023/01/25 06:52:35;;;;;;;15.38;6.65;;;0.70;96.00;;;;;;5052954;28;20013;-81
2023/01/25 06:55:02;;;;;;;16.55;11.63;;;0.80;96.00;;;;;;5039221;28;20025;-81
2023/01/25 06:57:31;;;;;;;17.20;8.90;;;0.80;95.90;;;;;;5031764;28;20025;-80
2023/01/25 06:59:57;;;;;;;13.40;7.75;;;0.80;95.80;;;;;;5052537;28;20475;-80
2023/01/25 07:02:22;;;;;;;11.13;7.55;;;0.80;95.80;;;;;;5047965;28;20036;-82
2023/01/25 07:04:48;;;;;;;14.65;10.45;;;0.80;95.80;;;;;;5052352;28;20535;-80
2023/01/25 07:07:14;;;;;;;9.25;6.88;;;0.80;95.70;;;;;;5051602;28;20369;-81
2023/01/25 07:09:40;;;;;;;16.30;9.35;;;0.90;95.70;;;;;;5052354;28;20504;-81
2023/01/25 07:12:06;;;;;;;26.80;10.57;;;0.90;95.70;;;;;;5052116;28;20017;-80
2023/01/25 07:14:32;;;;;;;10.60;6.93;;;0.90;95.60;;;;;;5052476;28;20017;-81
2023/01/25 07:16:58;;;;;;;8.90;5.88;;;0.90;95.60;;;;;;5052424;28;20160;-82
2023/01/25 07:19:24;;;;;;;10.00;5.60;;;0.80;95.50;;;;;;5052639;28;20028;-81
2023/01/25 07:21:50;;;;;;;10.48;7.00;;;0.70;95.30;;;;;;5034386;28;20025;-81
2023/01/25 07:24:18;;;;;;;9.23;6.25;;;0.60;95.30;;;;;;5033635;28;20047;-79
2023/01/25 07:26:45;;;;;;;9.10;7.07;;;0.60;95.50;;;;;;5052505;28;20079;-81
2023/01/25 07:29:13;;;;;;;9.57;7.05;;;0.70;95.60;;;;;;5052510;28;20086;-81
2023/01/25 07:31:40;;;;;;;7.20;6.00;;;0.70;95.60;;;;;;5052733;28;20435;-81
2023/01/25 07:34:09;;;;;;;8.80;6.27;;;0.70;95.50;;;;;;5052355;28;20384;-80
2023/01/25 07:36:36;;;;;;;10.10;7.10;;;0.70;95.50;;;;;;5052325;28;20056;-81
2023/01/25 07:39:02;;;;;;;9.10;6.10;;;0.80;95.50;;;;;;5052054;28;20025;-81
2023/01/25 07:41:28;;;;;;;8.98;5.20;;;0.70;95.50;;;;;;5046454;28;20021;-80
2023/01/25 07:43:54;;;;;;;8.55;5.82;;;0.80;95.50;;;;;;5050363;28;20101;-81
2023/01/25 07:46:20;;;;;;;12.23;6.57;;;0.80;95.40;;;;;;5052220;28;20021;-81
2023/01/25 07:48:51;;;;;;;12.07;6.88;;;0.90;95.40;;;;;;5052015;28;20035;-80
2023/01/25 07:51:22;;;;;;;12.95;6.80;;;0.90;95.30;;;;;;5041806;28;20033;-82
2023/01/25 07:53:55;;;;;;;10.85;6.30;;;0.90;95.30;;;;;;5042918;28;20018;-81
2023/01/25 07:56:27;;;;;;;14.73;6.30;;;1.00;95.20;;;;;;5048803;28;20053;-80
2023/01/25 07:58:55;;;;;;;8.80;6.57;;;1.10;95.20;;;;;;5050833;28;20163;-81
2023/01/25 08:01:23;;;;;;;8.43;6.20;;;1.10;95.20;;;;;;5051840;28;20036;-81
2023/01/25 08:03:50;;;;;;;14.93;7.72;;;1.00;95.10;;;;;;5052035;28;20060;-81
2023/01/25 08:06:17;;;;;;;13.20;7.95;;;1.10;95.10;;;;;;5051753;28;20110;-81
2023/01/25 08:08:45;;;;;;;15.68;8.98;;;1.10;95.30;;;;;;5051646;28;20043;-80
2023/01/25 08:11:19;;;;;;;9.63;7.45;;;1.10;95.20;;;;;;5051559;28;20032;-81
2023/01/25 08:13:45;;;;;;;13.10;9.00;;;1.00;95.30;;;;;;5051412;28;20074;-82
2023/01/25 08:16:18;;;;;;;19.88;8.38;;;1.00;95.30;;;;;;5050699;28;20044;-81
2023/01/25 08:18:48;;;;;;;10.60;7.03;;;1.00;95.30;;;;;;5051778;28;20017;-81
2023/01/25 08:21:14;;;;;;;10.40;7.05;;;1.00;95.40;;;;;;5051775;28;20055;-81
2023/01/25 08:23:40;;;;;;;8.93;7.85;;;1.00;95.40;;;;;;5051727;28;20074;-81
2023/01/25 08:26:09;;;;;;;12.23;8.27;;;1.00;95.40;;;;;;5051518;28;20035;-81
2023/01/25 08:28:35;;;;;;;10.93;6.97;;;1.00;95.50;;;;;;5051239;28;20517;-79
2023/01/25 08:31:09;;;;;;;12.13;8.25;;;1.00;95.60;;;;;;5050187;28;20029;-81
2023/01/25 08:33:35;;;;;;;12.20;7.60;;;1.10;95.70;;;;;;5051333;28;20083;-82
2023/01/25 08:36:02;;;;;;;9.77;7.03;;;1.10;95.70;;;;;;5053828;28;20020;-80
2023/01/25 08:38:28;;;;;;;12.53;7.20;;;1.10;95.60;;;;;;5055787;28;20535;-82
2023/01/25 08:40:54;;;;;;;14.65;7.38;;;1.20;95.60;;;;;;5055113;28;20105;-81
2023/01/25 08:43:20;;;;;;;11.75;7.75;;;1.10;95.50;;;;;;5037510;28;20032;-81
2023/01/25 08:45:54;;;;;;;14.05;8.38;;;1.10;95.50;;;;;;5035921;28;20032;-81
2023/01/25 08:48:20;;;;;;;8.45;6.50;;;1.10;95.60;;;;;;5017591;28;20033;-81
2023/01/25 08:50:46;;;;;;;13.50;7.45;;;1.10;95.70;;;;;;5037093;28;20399;-82
2023/01/25 08:53:12;;;;;;;11.20;7.13;;;1.10;95.70;;;;;;5050798;28;20363;-81
2023/01/25 08:55:41;;;;;;;13.40;8.02;;;1.00;95.70;;;;;;5027661;28;20029;-82
2023/01/25 08:58:12;;;;;;;12.60;8.45;;;1.00;95.80;;;;;;5054678;28;20388;-78
2023/01/25 09:00:39;;;;;;;11.95;8.35;;;1.00;95.90;;;;;;5055260;28;20049;-82
2023/01/25 09:03:09;;;;;;;10.23;6.65;;;1.10;95.90;;;;;;5054583;28;20025;-82
2023/01/25 09:05:36;;;;;;;12.75;8.45;;;1.10;95.80;;;;;;5055614;28;20039;-81
2023/01/25 09:08:04;;;;;;;9.85;7.53;;;1.10;95.90;;;;;;5055169;28;20163;-80
2023/01/25 09:10:31;;;;;;;10.27;7.50;;;1.20;95.90;;;;;;5055034;28;20495;-80
2023/01/25 09:12:57;;;;;;;11.50;8.20;;;1.20;95.80;;;;;;5036969;28;20116;-81
2023/01/25 09:15:23;;;;;;;9.88;7.18;;;1.10;95.70;;;;;;5036734;28;20024;-81
2023/01/25 09:17:54;;;;;;;10.93;6.65;;;1.10;95.80;;;;;;5055507;28;20452;-80
2023/01/25 09:20:20;;;;;;;8.10;6.80;;;1.10;95.80;;;;;;5036644;28;20071;-81
2023/01/25 09:22:46;;;;;;;9.70;7.18;;;1.20;95.80;;;;;;5055492;28;20419;-81
2023/01/25 09:25:13;;;;;;;7.72;6.00;;;1.30;95.70;;;;;;5054917;28;20036;-82
2023/01/25 09:27:39;;;;;;;8.95;5.88;;;1.20;95.40;;;;;;5054950;28;20074;-82
2023/01/25 09:30:07;;;;;;;10.95;6.95;;;1.20;95.20;;;;;;5058972;28;20558;-80
2023/01/25 09:32:33;;;;;;;10.10;7.95;;;1.20;95.20;;;;;;5060670;28;20379;-80
2023/01/25 09:34:59;;;;;;;7.28;5.93;;;1.20;95.20;;;;;;5064332;28;20032;-81
2023/01/25 09:37:25;;;;;;;13.38;7.35;;;1.20;95.20;;;;;;5050068;28;20035;-81
2023/01/25 09:39:51;;;;;;;9.05;6.50;;;1.10;95.10;;;;;;5045188;28;20056;-81
2023/01/25 09:43:02;;;;;;;8.88;6.18;;;1.10;95.10;;;;;;5054811;28;20021;-80
2023/01/25 09:45:32;;;;;;;8.00;6.78;;;1.20;95.20;;;;;;5062897;28;20096;-80
2023/01/25 09:48:11;;;;;;;9.50;6.25;;;1.20;95.10;;;;;;5038867;28;20391;-81
2023/01/25 09:51:22;;;;;;;11.70;6.50;;;1.30;95.20;;;;;;5054096;28;20120;-81
2023/01/25 09:53:50;;;;;;;11.80;6.60;;;1.30;95.10;;;;;;5038301;28;20021;-81
2023/01/25 09:56:22;;;;;;;11.93;6.47;;;1.30;95.00;;;;;;5050230;28;20376;-80
2023/01/25 09:58:52;;;;;;;14.25;8.38;;;1.30;95.00;;;;;;5053874;28;20036;-80
2023/01/25 10:01:18;;;;;;;9.55;6.88;;;1.40;95.20;;;;;;5055829;28;20112;-80
2023/01/25 10:03:49;;;;;;;10.35;8.25;;;1.20;94.90;;;;;;5054066;28;20511;-79
2023/01/25 10:06:17;;;;;;;11.45;8.23;;;1.10;95.00;;;;;;5036029;28;20033;-81
2023/01/25 10:09:09;;;;;;;11.63;8.10;;;1.00;95.20;;;;;;5053426;28;20116;-80
2023/01/25 10:11:37;;;;;;;9.98;7.18;;;1.00;95.50;;;;;;5054361;28;20033;-81
2023/01/25 10:14:13;;;;;;;11.00;7.57;;;1.00;95.50;;;;;;5035647;28;20582;-81
2023/01/25 10:16:45;;;;;;;13.60;10.07;;;1.00;95.50;;;;;;5053405;28;20017;-81
2023/01/25 10:19:21;;;;;;;13.13;7.82;;;1.00;95.60;;;;;;5053565;28;20388;-80
2023/01/25 10:22:18;;;;;;;15.85;9.82;;;1.00;95.70;;;;;;5053203;28;20029;-81
2023/01/25 10:25:03;;;;;;;15.70;9.27;;;1.00;95.80;;;;;;5045308;28;20445;-81
2023/01/25 10:27:44;;;;;;;12.63;9.43;;;1.00;95.70;;;;;;5040087;28;20044;-81
2023/01/25 10:30:26;;;;;;;12.02;7.97;;;0.90;95.80;;;;;;5035705;28;20043;-81
2023/01/25 10:32:57;;;;;;;12.07;8.02;;;0.80;96.00;;;;;;5053475;28;20021;-82
2023/01/25 10:35:29;;;;;;;12.23;7.28;;;0.70;96.00;;;;;;5053218;28;20108;-81
2023/01/25 10:38:01;;;;;;;12.18;8.32;;;0.70;96.00;;;;;;5053435;28;20414;-81
2023/01/25 10:40:47;;;;;;;13.90;7.82;;;0.70;96.10;;;;;;5051882;28;20021;-81
2023/01/25 10:43:18;;;;;;;11.75;7.90;;;0.60;96.10;;;;;;5053101;28;20029;-80
2023/01/25 10:45:44;;;;;;;16.35;8.95;;;0.60;96.10;;;;;;5034956;28;20029;-80
2023/01/25 10:48:16;;;;;;;19.60;11.73;;;0.60;96.10;;;;;;5053278;28;20017;-81
2023/01/25 10:50:45;;;;;;;17.98;10.50;;;0.70;96.10;;;;;;5053138;28;20097;-81
2023/01/25 10:53:34;;;;;;;11.93;9.52;;;0.70;96.10;;;;;;5048567;28;20032;-81
2023/01/25 10:56:21;;;;;;;14.68;7.93;;;0.70;96.00;;;;;;5026971;28;20052;-81
2023/01/25 10:58:53;;;;;;;11.20;8.07;;;0.70;95.90;;;;;;5022847;28;20468;-81
2023/01/25 11:01:31;;;;;;;11.25;8.25;;;0.80;95.80;;;;;;5052782;28;20029;-79
2023/01/25 11:03:58;;;;;;;15.05;8.93;;;0.70;95.70;;;;;;5052632;28;20028;-80
2023/01/25 11:06:51;;;;;;;14.82;7.90;;;0.70;95.80;;;;;;5052609;28;20017;-81
2023/01/25 11:09:20;;;;;;;12.07;8.05;;;0.80;95.70;;;;;;5048234;28;20487;-81
2023/01/25 11:12:25;;;;;;;13.88;8.43;;;0.80;96.00;;;;;;5052548;28;20025;-82
2023/01/25 11:14:51;;;;;;;12.05;7.82;;;0.80;95.60;;;;;;4979920;28;20037;-82
2023/01/25 11:17:29;;;;;;;12.38;8.98;;;0.80;95.50;;;;;;5052542;28;20029;-81
2023/01/25 11:20:13;;;;;;;11.32;8.30;;;0.90;95.30;;;;;;5052903;28;20421;-80
2023/01/25 11:22:52;;;;;;;9.73;7.60;;;0.80;94.90;;;;;;5052942;28;20083;-81
2023/01/25 11:25:25;;;;;;;12.57;6.75;;;0.80;94.90;;;;;;5052753;28;20040;-79
2023/01/25 11:28:16;;;;;;;16.30;7.65;;;0.80;95.00;;;;;;5034541;28;20057;-81
2023/01/25 11:30:42;;;;;;;13.85;8.35;;;0.70;94.60;;;;;;5052223;28;20037;-81
2023/01/25 11:33:13;;;;;;;12.20;7.43;;;0.70;94.80;;;;;;5051436;28;20431;-80
2023/01/25 11:35:58;;;;;;;12.20;8.70;;;0.80;94.80;;;;;;5051854;28;20021;-82
2023/01/25 11:38:24;;;;;;;14.75;8.25;;;0.80;94.80;;;;;;5052196;28;20392;-81
2023/01/25 11:41:00;;;;;;;9.02;6.25;;;0.80;94.70;;;;;;5052090;28;20025;-81
2023/01/25 11:43:48;;;;;;;14.48;8.48;;;0.90;94.70;;;;;;5052060;28;20028;-82
2023/01/25 11:46:36;;;;;;;12.88;7.70;;;0.90;94.40;;;;;;5039036;28;20422;-81
2023/01/25 11:49:20;;;;;;;12.15;8.02;;;0.90;94.40;;;;;;5050803;28;20130;-80
2023/01/25 11:51:49;;;;;;;12.98;6.93;;;0.90;94.20;;;;;;5051949;28;20060;-81
2023/01/25 11:54:49;;;;;;;10.20;6.50;;;0.90;93.80;;;;;;5038935;28;20109;-80
2023/01/25 11:57:32;;;;;;;17.17;8.63;;;0.80;93.70;;;;;;5042095;28;20434;-80
2023/01/25 12:00:22;;;;;;;21.30;6.82;;;0.80;93.80;;;;;;5051732;28;20052;-81
2023/01/25 12:03:00;;;;;;;10.07;6.40;;;0.80;93.80;;;;;;5051441;28;20025;-81
2023/01/25 12:05:48;;;;;;;11.48;7.57;;;0.70;93.50;;;;;;5039361;28;20051;-81
2023/01/25 12:08:47;;;;;;;15.05;8.50;;;0.60;93.60;;;;;;5051380;28;20086;-81
2023/01/25 12:11:45;;;;;;;10.90;7.32;;;0.60;93.80;;;;;;5050857;28;20037;-81
2023/01/25 12:14:35;;;;;;;14.35;7.40;;;0.70;93.80;;;;;;5050733;28;20126;-81
2023/01/25 12:17:29;;;;;;;11.88;7.38;;;0.70;93.70;;;;;;5051480;28;20032;-80
2023/01/25 12:19:55;;;;;;;12.15;7.57;;;0.70;93.40;;;;;;5050944;28;20463;-81
2023/01/25 12:22:39;;;;;;;8.63;6.63;;;0.70;93.40;;;;;;5051721;28;20029;-81
2023/01/25 12:25:25;;;;;;;14.80;7.95;;;0.70;93.50;;;;;;5051655;28;20727;-81
2023/01/25 12:27:51;;;;;;;12.07;7.28;;;0.70;93.50;;;;;;5051694;28;20029;-81
2023/01/25 12:30:31;;;;;;;12.10;6.93;;;0.70;93.50;;;;;;5033314;28;20048;-82
2023/01/25 12:33:02;;;;;;;11.02;7.03;;;0.60;93.40;;;;;;5051266;28;20040;-82
2023/01/25 12:35:39;;;;;;;10.75;6.30;;;0.60;93.40;;;;;;5050409;28;20043;-81
2023/01/25 12:38:21;;;;;;;18.38;7.35;;;0.60;93.50;;;;;;5051414;28;20025;-81
2023/01/25 12:41:10;;;;;;;16.27;7.80;;;0.40;93.40;;;;;;5051408;28;20048;-80
2023/01/25 12:43:51;;;;;;;18.77;9.25;;;0.40;93.60;;;;;;5051198;28;20037;-81
2023/01/25 12:46:54;;;;;;;10.88;7.05;;;0.40;93.80;;;;;;5038696;28;20017;-81
2023/01/25 12:49:29;;;;;;;12.75;7.40;;;0.50;93.90;;;;;;5050959;28;20399;-81
2023/01/25 12:52:00;;;;;;;10.60;6.95;;;0.50;93.90;;;;;;5050042;28;20053;-80
2023/01/25 12:54:46;;;;;;;10.45;7.90;;;0.60;93.80;;;;;;5036847;28;20030;-81
2023/01/25 12:57:35;;;;;;;12.70;7.05;;;0.60;93.80;;;;;;5051002;28;20103;-79
2023/01/25 13:00:03;;;;;;;14.82;8.98;;;0.50;93.70;;;;;;5050991;28;20498;-80
2023/01/25 13:02:54;;;;;;;10.82;7.22;;;0.50;93.90;;;;;;5032249;28;20025;-80
2023/01/25 13:05:27;;;;;;;13.00;7.65;;;0.60;93.90;;;;;;5035870;28;20025;-82
2023/01/25 13:08:19;;;;;;;13.93;9.52;;;0.50;93.90;;;;;;5051244;28;20379;-81
2023/01/25 13:10:50;;;;;;;23.50;13.68;;;0.60;94.00;;;;;;5002627;28;20118;-82
2023/01/25 13:13:27;;;;;;;14.85;8.85;;;0.70;94.00;;;;;;5050946;28;20100;-80